sensor_id;sensor_type;location;lat;lon;timestamp;pressure;altitude;pressure_sealevel;temperature;humidity
44198;BME280;30157;55.512;37.764;2023-02-13T00:01:57;100323.28;;;-9.70;82.41
44198;BME280;30157;55.512;37.764;2023-02-13T00:04:23;100195.69;;;-10.45;82.41
44198;BME280;30157;55.512;37.764;2023-02-13T00:06:48;100307.44;;;-9.80;82.08
44198;BME280;30157;55.512;37.764;2023-02-13T00:09:14;100315.13;;;-9.68;82.11
44198;BME280;30157;55.512;37.764;2023-02-13T00:11:40;100322.50;;;-9.69;82.13
44198;BME280;30157;55.512;37.764;2023-02-13T00:14:05;100282.69;;;-9.85;81.87
44198;BME280;30157;55.512;37.764;2023-02-13T00:16:32;100292.84;;;-9.73;82.02
44198;BME280;30157;55.512;37.764;2023-02-13T00:18:57;100296.88;;;-9.75;81.82
44198;BME280;30157;55.512;37.764;2023-02-13T00:21:23;100244.47;;;-10.12;82.37
44198;BME280;30157;55.512;37.764;2023-02-13T00:23:49;100245.06;;;-10.15;82.53
44198;BME280;30157;55.512;37.764;2023-02-13T00:26:15;100250.63;;;-9.98;83.03
44198;BME280;30157;55.512;37.764;2023-02-13T00:28:43;100234.06;;;-9.96;83.16
44198;BME280;30157;55.512;37.764;2023-02-13T00:31:12;100276.41;;;-9.59;82.97
44198;BME280;30157;55.512;37.764;2023-02-13T00:33:38;100204.91;;;-9.94;82.93
44198;BME280;30157;55.512;37.764;2023-02-13T00:36:05;100272.53;;;-9.46;82.92
44198;BME280;30157;55.512;37.764;2023-02-13T00:38:31;100148.03;;;-10.14;82.35
44198;BME280;30157;55.512;37.764;2023-02-13T00:40:57;100194.88;;;-9.84;82.13
44198;BME280;30157;55.512;37.764;2023-02-13T00:43:23;100195.38;;;-9.88;82.07
44198;BME280;30157;55.512;37.764;2023-02-13T00:45:48;100207.06;;;-9.78;82.42
44198;BME280;30157;55.512;37.764;2023-02-13T00:48:14;100252.13;;;-9.38;82.67
44198;BME280;30157;55.512;37.764;2023-02-13T00:50:41;100247.13;;;-9.38;82.91
44198;BME280;30157;55.512;37.764;2023-02-13T00:53:08;100203.66;;;-9.48;82.94
44198;BME280;30157;55.512;37.764;2023-02-13T00:55:34;100243.44;;;-9.11;82.95
44198;BME280;30157;55.512;37.764;2023-02-13T00:58:00;100217.69;;;-9.19;82.90
44198;BME280;30157;55.512;37.764;2023-02-13T01:00:29;100235.28;;;-9.08;82.91
44198;BME280;30157;55.512;37.764;2023-02-13T01:02:54;100183.50;;;-9.37;82.92
44198;BME280;30157;55.512;37.764;2023-02-13T01:05:20;100017.59;;;-10.23;82.83
44198;BME280;30157;55.512;37.764;2023-02-13T01:07:46;100050.09;;;-10.04;82.85
44198;BME280;30157;55.512;37.764;2023-02-13T01:10:12;100210.47;;;-9.04;83.24
44198;BME280;30157;55.512;37.764;2023-02-13T01:12:38;100223.66;;;-8.96;83.51
44198;BME280;30157;55.512;37.764;2023-02-13T01:15:06;100183.47;;;-9.17;83.80
44198;BME280;30157;55.512;37.764;2023-02-13T01:17:32;100223.75;;;-8.84;83.82
44198;BME280;30157;55.512;37.764;2023-02-13T01:19:58;100226.41;;;-8.83;84.05
44198;BME280;30157;55.512;37.764;2023-02-13T01:22:23;100196.63;;;-8.99;83.97
44198;BME280;30157;55.512;37.764;2023-02-13T01:24:49;100218.56;;;-8.75;84.21
44198;BME280;30157;55.512;37.764;2023-02-13T01:27:15;100181.53;;;-8.99;83.93
44198;BME280;30157;55.512;37.764;2023-02-13T01:29:40;100134.47;;;-9.22;83.86
44198;BME280;30157;55.512;37.764;2023-02-13T01:32:06;100198.84;;;-8.81;84.02
44198;BME280;30157;55.512;37.764;2023-02-13T01:34:32;100155.25;;;-9.02;83.87
44198;BME280;30157;55.512;37.764;2023-02-13T01:36:58;100181.75;;;-8.85;83.87
44198;BME280;30157;55.512;37.764;2023-02-13T01:39:24;100047.09;;;-9.57;83.67
44198;BME280;30157;55.512;37.764;2023-02-13T01:41:50;100190.03;;;-8.86;83.46
44198;BME280;30157;55.512;37.764;2023-02-13T01:47:36;99943.91;;;-10.23;83.38
44198;BME280;30157;55.512;37.764;2023-02-13T01:50:19;100194.19;;;-8.87;83.33
44198;BME280;30157;55.512;37.764;2023-02-13T01:52:50;100141.63;;;-9.26;83.59
44198;BME280;30157;55.512;37.764;2023-02-13T01:55:18;100175.78;;;-9.08;83.88
44198;BME280;30157;55.512;37.764;2023-02-13T01:57:51;100179.59;;;-9.23;84.29
44198;BME280;30157;55.512;37.764;2023-02-13T02:00:18;100043.41;;;-9.93;84.47
44198;BME280;30157;55.512;37.764;2023-02-13T02:02:50;100162.25;;;-9.31;85.21
44198;BME280;30157;55.512;37.764;2023-02-13T02:05:26;100168.94;;;-9.31;85.45
44198;BME280;30157;55.512;37.764;2023-02-13T02:07:55;100102.63;;;-9.54;85.57
44198;BME280;30157;55.512;37.764;2023-02-13T02:10:23;100151.50;;;-9.07;85.19
44198;BME280;30157;55.512;37.764;2023-02-13T02:13:17;100145.91;;;-8.93;85.07
44198;BME280;30157;55.512;37.764;2023-02-13T02:15:44;100068.81;;;-9.25;84.89
44198;BME280;30157;55.512;37.764;2023-02-13T02:18:15;100109.31;;;-9.22;84.24
44198;BME280;30157;55.512;37.764;2023-02-13T02:29:29;100124.63;;;-9.19;85.64
44198;BME280;30157;55.512;37.764;2023-02-13T02:34:53;100116.81;;;-9.12;85.30
44198;BME280;30157;55.512;37.764;2023-02-13T02:37:51;100124.44;;;-9.00;85.50
44198;BME280;30157;55.512;37.764;2023-02-13T02:43:31;100108.31;;;-8.69;85.93
44198;BME280;30157;55.512;37.764;2023-02-13T02:49:03;100113.09;;;-8.50;85.25
44198;BME280;30157;55.512;37.764;2023-02-13T02:52:16;100068.03;;;-8.69;85.39
44198;BME280;30157;55.512;37.764;2023-02-13T02:54:54;100104.78;;;-8.37;85.73
44198;BME280;30157;55.512;37.764;2023-02-13T02:57:41;100024.94;;;-8.62;85.12
44198;BME280;30157;55.512;37.764;2023-02-13T03:00:28;99944.72;;;-9.03;84.86
44198;BME280;30157;55.512;37.764;2023-02-13T03:03:20;100051.03;;;-8.38;85.12
44198;BME280;30157;55.512;37.764;2023-02-13T03:08:51;100068.84;;;-8.58;85.44
44198;BME280;30157;55.512;37.764;2023-02-13T03:11:37;100062.22;;;-8.46;86.05
44198;BME280;30157;55.512;37.764;2023-02-13T03:14:25;99951.41;;;-9.04;86.06
44198;BME280;30157;55.512;37.764;2023-02-13T03:16:51;100045.22;;;-8.49;86.24
44198;BME280;30157;55.512;37.764;2023-02-13T03:25:34;100050.84;;;-8.17;85.90
44198;BME280;30157;55.512;37.764;2023-02-13T03:28:21;100044.09;;;-8.18;85.67
44198;BME280;30157;55.512;37.764;2023-02-13T03:31:43;100037.31;;;-8.07;85.60
44198;BME280;30157;55.512;37.764;2023-02-13T03:34:16;99984.81;;;-8.37;85.52
44198;BME280;30157;55.512;37.764;2023-02-13T03:40:04;100037.31;;;-8.07;85.43
44198;BME280;30157;55.512;37.764;2023-02-13T03:42:49;100041.56;;;-8.06;85.94
44198;BME280;30157;55.512;37.764;2023-02-13T03:45:21;100030.06;;;-8.03;85.78
44198;BME280;30157;55.512;37.764;2023-02-13T03:48:08;100029.22;;;-8.03;85.60
44198;BME280;30157;55.512;37.764;2023-02-13T03:50:56;100027.78;;;-8.12;85.94
44198;BME280;30157;55.512;37.764;2023-02-13T03:53:23;100018.22;;;-8.04;85.99
44198;BME280;30157;55.512;37.764;2023-02-13T03:55:52;99936.13;;;-8.49;86.16
44198;BME280;30157;55.512;37.764;2023-02-13T03:58:41;100007.28;;;-8.04;86.34
44198;BME280;30157;55.512;37.764;2023-02-13T04:01:30;99986.69;;;-8.11;87.19
44198;BME280;30157;55.512;37.764;2023-02-13T04:04:04;99981.44;;;-8.14;87.00
44198;BME280;30157;55.512;37.764;2023-02-13T04:09:13;99953.59;;;-8.27;87.84
44198;BME280;30157;55.512;37.764;2023-02-13T04:14:16;99969.94;;;-8.22;88.61
44198;BME280;30157;55.512;37.764;2023-02-13T04:16:57;99928.19;;;-8.42;88.39
44198;BME280;30157;55.512;37.764;2023-02-13T04:19:26;99923.84;;;-8.33;88.48
44198;BME280;30157;55.512;37.764;2023-02-13T04:22:00;99980.25;;;-7.95;88.57
44198;BME280;30157;55.512;37.764;2023-02-13T04:24:26;99972.34;;;-8.00;88.91
44198;BME280;30157;55.512;37.764;2023-02-13T04:26:53;99957.13;;;-8.01;88.38
44198;BME280;30157;55.512;37.764;2023-02-13T04:29:20;99938.28;;;-8.06;88.50
44198;BME280;30157;55.512;37.764;2023-02-13T04:31:47;99979.59;;;-7.81;88.33
44198;BME280;30157;55.512;37.764;2023-02-13T04:34:12;99952.41;;;-7.97;88.82
44198;BME280;30157;55.512;37.764;2023-02-13T04:36:38;99757.06;;;-9.01;88.36
44198;BME280;30157;55.512;37.764;2023-02-13T04:39:04;99918.56;;;-8.00;88.96
44198;BME280;30157;55.512;37.764;2023-02-13T04:41:29;99943.59;;;-7.78;89.06
44198;BME280;30157;55.512;37.764;2023-02-13T04:43:55;99855.09;;;-8.32;89.19
44198;BME280;30157;55.512;37.764;2023-02-13T04:46:21;99952.53;;;-7.83;89.53
44198;BME280;30157;55.512;37.764;2023-02-13T04:48:46;99882.75;;;-8.20;89.98
44198;BME280;30157;55.512;37.764;2023-02-13T04:51:12;99913.72;;;-7.97;89.75
44198;BME280;30157;55.512;37.764;2023-02-13T04:53:38;99934.34;;;-7.91;90.03
44198;BME280;30157;55.512;37.764;2023-02-13T04:56:03;99939.81;;;-7.97;90.93
44198;BME280;30157;55.512;37.764;2023-02-13T04:58:29;99927.75;;;-7.89;90.65
44198;BME280;30157;55.512;37.764;2023-02-13T05:00:55;99799.94;;;-8.52;90.25
44198;BME280;30157;55.512;37.764;2023-02-13T05:03:20;99888.22;;;-7.90;90.23
44198;BME280;30157;55.512;37.764;2023-02-13T05:05:47;99799.25;;;-8.38;90.58
44198;BME280;30157;55.512;37.764;2023-02-13T05:08:13;99902.97;;;-7.83;91.30
44198;BME280;30157;55.512;37.764;2023-02-13T05:10:39;99903.38;;;-7.65;91.16
44198;BME280;30157;55.512;37.764;2023-02-13T05:13:05;99896.69;;;-7.64;90.93
44198;BME280;30157;55.512;37.764;2023-02-13T05:15:30;99895.50;;;-7.69;91.08
44198;BME280;30157;55.512;37.764;2023-02-13T05:17:56;99868.72;;;-7.93;90.85
44198;BME280;30157;55.512;37.764;2023-02-13T05:20:22;99859.63;;;-8.02;91.11
44198;BME280;30157;55.512;37.764;2023-02-13T05:22:50;99875.25;;;-7.83;91.35
44198;BME280;30157;55.512;37.764;2023-02-13T05:25:36;99844.06;;;-7.97;91.33
44198;BME280;30157;55.512;37.764;2023-02-13T05:28:03;99820.00;;;-8.05;91.51
44198;BME280;30157;55.512;37.764;2023-02-13T05:30:29;99845.28;;;-7.91;91.28
44198;BME280;30157;55.512;37.764;2023-02-13T05:32:55;99825.97;;;-7.91;91.33
44198;BME280;30157;55.512;37.764;2023-02-13T05:35:21;99859.44;;;-7.68;91.00
44198;BME280;30157;55.512;37.764;2023-02-13T05:37:47;99865.47;;;-7.78;91.06
44198;BME280;30157;55.512;37.764;2023-02-13T05:40:13;99878.81;;;-7.67;91.33
44198;BME280;30157;55.512;37.764;2023-02-13T05:42:40;99738.50;;;-8.42;90.95
44198;BME280;30157;55.512;37.764;2023-02-13T05:45:07;99779.06;;;-8.14;90.76
44198;BME280;30157;55.512;37.764;2023-02-13T05:47:33;99792.72;;;-8.11;90.81
44198;BME280;30157;55.512;37.764;2023-02-13T05:50:01;99836.69;;;-7.82;90.87
44198;BME280;30157;55.512;37.764;2023-02-13T05:52:29;99860.94;;;-7.58;90.70
44198;BME280;30157;55.512;37.764;2023-02-13T05:54:54;99715.19;;;-8.40;90.61
44198;BME280;30157;55.512;37.764;2023-02-13T05:57:20;99730.47;;;-8.25;90.33
44198;BME280;30157;55.512;37.764;2023-02-13T05:59:45;99746.41;;;-8.13;90.49
44198;BME280;30157;55.512;37.764;2023-02-13T06:02:11;99862.09;;;-7.41;90.62
44198;BME280;30157;55.512;37.764;2023-02-13T06:04:37;99724.09;;;-8.20;90.50
44198;BME280;30157;55.512;37.764;2023-02-13T06:07:02;99862.97;;;-7.41;90.89
44198;BME280;30157;55.512;37.764;2023-02-13T06:09:28;99871.25;;;-7.30;90.84
44198;BME280;30157;55.512;37.764;2023-02-13T06:11:53;99807.25;;;-7.57;91.21
44198;BME280;30157;55.512;37.764;2023-02-13T06:14:19;99857.25;;;-7.13;90.71
44198;BME280;30157;55.512;37.764;2023-02-13T06:16:45;99867.16;;;-7.03;90.69
44198;BME280;30157;55.512;37.764;2023-02-13T06:19:10;99809.28;;;-7.27;90.28
44198;BME280;30157;55.512;37.764;2023-02-13T06:21:36;99856.03;;;-6.93;90.78
44198;BME280;30157;55.512;37.764;2023-02-13T06:24:03;99805.88;;;-7.14;90.73
44198;BME280;30157;55.512;37.764;2023-02-13T06:26:29;99835.53;;;-6.84;90.92
44198;BME280;30157;55.512;37.764;2023-02-13T06:28:55;99824.28;;;-6.89;90.68
44198;BME280;30157;55.512;37.764;2023-02-13T06:31:20;99730.84;;;-7.43;90.74
44198;BME280;30157;55.512;37.764;2023-02-13T06:33:46;99694.66;;;-7.57;90.60
44198;BME280;30157;55.512;37.764;2023-02-13T06:36:12;99656.69;;;-7.85;90.59
44198;BME280;30157;55.512;37.764;2023-02-13T06:38:37;99726.31;;;-7.22;90.54
44198;BME280;30157;55.512;37.764;2023-02-13T06:41:03;99813.34;;;-6.63;90.41
44198;BME280;30157;55.512;37.764;2023-02-13T06:43:29;99746.94;;;-7.02;90.28
44198;BME280;30157;55.512;37.764;2023-02-13T06:45:55;99703.94;;;-7.17;90.12
44198;BME280;30157;55.512;37.764;2023-02-13T06:48:21;99717.13;;;-7.08;90.45
44198;BME280;30157;55.512;37.764;2023-02-13T06:50:47;99826.31;;;-6.30;89.96
44198;BME280;30157;55.512;37.764;2023-02-13T06:53:13;99684.53;;;-7.05;89.61
44198;BME280;30157;55.512;37.764;2023-02-13T06:55:38;99809.63;;;-6.28;89.84
44198;BME280;30157;55.512;37.764;2023-02-13T06:58:05;99757.78;;;-6.50;89.53
44198;BME280;30157;55.512;37.764;2023-02-13T07:00:30;99800.00;;;-6.20;89.35
44198;BME280;30157;55.512;37.764;2023-02-13T07:03:04;99797.25;;;-6.23;89.72
44198;BME280;30157;55.512;37.764;2023-02-13T07:05:30;99791.25;;;-6.12;89.62
44198;BME280;30157;55.512;37.764;2023-02-13T07:07:56;99786.84;;;-6.01;89.26
44198;BME280;30157;55.512;37.764;2023-02-13T07:10:22;99800.34;;;-6.01;89.06
44198;BME280;30157;55.512;37.764;2023-02-13T07:12:47;99796.56;;;-5.93;89.49
44198;BME280;30157;55.512;37.764;2023-02-13T07:15:15;99802.44;;;-5.94;89.25
44198;BME280;30157;55.512;37.764;2023-02-13T07:17:40;99667.06;;;-6.60;89.34
44198;BME280;30157;55.512;37.764;2023-02-13T07:20:07;99778.03;;;-5.93;89.44
44198;BME280;30157;55.512;37.764;2023-02-13T07:22:33;99747.94;;;-6.03;89.66
44198;BME280;30157;55.512;37.764;2023-02-13T07:24:59;99777.97;;;-5.80;89.47
44198;BME280;30157;55.512;37.764;2023-02-13T07:27:25;99754.94;;;-5.84;89.74
44198;BME280;30157;55.512;37.764;2023-02-13T07:29:56;99769.63;;;-5.79;89.85
44198;BME280;30157;55.512;37.764;2023-02-13T07:32:23;99773.28;;;-5.74;90.15
44198;BME280;30157;55.512;37.764;2023-02-13T07:34:49;99698.44;;;-6.15;90.06
44198;BME280;30157;55.512;37.764;2023-02-13T07:37:14;99709.44;;;-5.99;89.86
44198;BME280;30157;55.512;37.764;2023-02-13T07:39:40;99765.75;;;-5.59;90.02
44198;BME280;30157;55.512;37.764;2023-02-13T07:42:05;99649.44;;;-6.17;89.64
44198;BME280;30157;55.512;37.764;2023-02-13T07:44:31;99739.38;;;-5.62;89.29
44198;BME280;30157;55.512;37.764;2023-02-13T07:46:57;99722.91;;;-5.70;89.52
44198;BME280;30157;55.512;37.764;2023-02-13T07:49:23;99764.97;;;-5.43;89.78
44198;BME280;30157;55.512;37.764;2023-02-13T07:51:48;99743.41;;;-5.51;89.92
44198;BME280;30157;55.512;37.764;2023-02-13T07:54:14;99619.56;;;-6.09;89.45
44198;BME280;30157;55.512;37.764;2023-02-13T07:56:39;99634.31;;;-6.02;89.46
44198;BME280;30157;55.512;37.764;2023-02-13T07:59:05;99713.66;;;-5.55;90.13
44198;BME280;30157;55.512;37.764;2023-02-13T08:01:31;99507.47;;;-6.69;90.36
44198;BME280;30157;55.512;37.764;2023-02-13T08:03:56;99648.88;;;-5.83;90.12
44198;BME280;30157;55.512;37.764;2023-02-13T08:06:22;99739.03;;;-5.38;90.74
44198;BME280;30157;55.512;37.764;2023-02-13T08:08:48;99744.22;;;-5.37;90.80
44198;BME280;30157;55.512;37.764;2023-02-13T08:11:34;99686.81;;;-5.68;91.34
44198;BME280;30157;55.512;37.764;2023-02-13T08:14:25;99697.78;;;-5.67;91.88
44198;BME280;30157;55.512;37.764;2023-02-13T08:16:52;99596.91;;;-6.22;92.47
44198;BME280;30157;55.512;37.764;2023-02-13T08:19:18;99742.56;;;-5.36;92.53
44198;BME280;30157;55.512;37.764;2023-02-13T08:21:44;99717.88;;;-5.41;92.63
44198;BME280;30157;55.512;37.764;2023-02-13T08:24:10;99567.81;;;-6.16;92.08
44198;BME280;30157;55.512;37.764;2023-02-13T08:26:36;99590.19;;;-5.92;91.65
44198;BME280;30157;55.512;37.764;2023-02-13T08:29:03;99671.09;;;-5.32;91.70
44198;BME280;30157;55.512;37.764;2023-02-13T08:31:29;99597.94;;;-5.59;91.60
44198;BME280;30157;55.512;37.764;2023-02-13T08:33:56;99579.09;;;-5.64;91.32
44198;BME280;30157;55.512;37.764;2023-02-13T08:36:22;99542.25;;;-5.76;91.55
44198;BME280;30157;55.512;37.764;2023-02-13T08:38:48;99691.06;;;-4.76;91.75
44198;BME280;30157;55.512;37.764;2023-02-13T08:41:14;99665.44;;;-4.82;92.07
44198;BME280;30157;55.512;37.764;2023-02-13T08:43:40;99674.63;;;-4.67;92.05
44198;BME280;30157;55.512;37.764;2023-02-13T08:46:05;99680.19;;;-4.58;91.87
44198;BME280;30157;55.512;37.764;2023-02-13T08:48:31;99670.13;;;-4.57;91.78
44198;BME280;30157;55.512;37.764;2023-02-13T08:50:56;99614.88;;;-4.80;91.66
44198;BME280;30157;55.512;37.764;2023-02-13T08:53:22;99648.84;;;-4.60;91.60
44198;BME280;30157;55.512;37.764;2023-02-13T08:55:55;99598.56;;;-4.85;91.60
44198;BME280;30157;55.512;37.764;2023-02-13T08:58:23;99667.38;;;-4.45;91.83
44198;BME280;30157;55.512;37.764;2023-02-13T09:00:49;99662.31;;;-4.45;91.57
44198;BME280;30157;55.512;37.764;2023-02-13T09:03:15;99649.00;;;-4.74;92.16
44198;BME280;30157;55.512;37.764;2023-02-13T09:05:41;99613.47;;;-4.90;92.51
44198;BME280;30157;55.512;37.764;2023-02-13T09:08:06;99659.78;;;-4.61;92.73
44198;BME280;30157;55.512;37.764;2023-02-13T09:10:36;99622.97;;;-4.71;93.11
44198;BME280;30157;55.512;37.764;2023-02-13T09:13:03;99640.00;;;-4.52;93.24
44198;BME280;30157;55.512;37.764;2023-02-13T09:15:29;99638.31;;;-4.51;93.22
44198;BME280;30157;55.512;37.764;2023-02-13T09:17:55;99593.06;;;-4.62;93.21
44198;BME280;30157;55.512;37.764;2023-02-13T09:20:21;99638.66;;;-4.29;93.41
44198;BME280;30157;55.512;37.764;2023-02-13T09:22:47;99628.66;;;-4.26;93.11
44198;BME280;30157;55.512;37.764;2023-02-13T09:25:13;99599.03;;;-4.43;93.19
44198;BME280;30157;55.512;37.764;2023-02-13T09:27:38;99468.31;;;-5.24;93.89
44198;BME280;30157;55.512;37.764;2023-02-13T09:30:08;99629.38;;;-4.28;93.87
44198;BME280;30157;55.512;37.764;2023-02-13T09:32:35;99556.22;;;-4.55;93.72
44198;BME280;30157;55.512;37.764;2023-02-13T09:35:03;99584.38;;;-4.32;93.62
44198;BME280;30157;55.512;37.764;2023-02-13T09:37:31;99622.63;;;-4.11;93.77
44198;BME280;30157;55.512;37.764;2023-02-13T09:39:57;99612.56;;;-4.10;93.93
44198;BME280;30157;55.512;37.764;2023-02-13T09:42:31;99556.50;;;-4.32;94.54
44198;BME280;30157;55.512;37.764;2023-02-13T09:45:00;99483.88;;;-4.66;94.52
44198;BME280;30157;55.512;37.764;2023-02-13T09:47:31;99591.00;;;-3.85;94.83
44198;BME280;30157;55.512;37.764;2023-02-13T09:50:03;99586.44;;;-3.74;94.54
44198;BME280;30157;55.512;37.764;2023-02-13T09:52:32;99546.78;;;-3.72;94.41
44198;BME280;30157;55.512;37.764;2023-02-13T09:55:16;99571.13;;;-3.40;94.06
44198;BME280;30157;55.512;37.764;2023-02-13T09:57:53;99570.84;;;-3.28;93.25
44198;BME280;30157;55.512;37.764;2023-02-13T10:00:33;99526.25;;;-3.41;92.83
44198;BME280;30157;55.512;37.764;2023-02-13T10:06:28;99547.94;;;-2.72;91.74
44198;BME280;30157;55.512;37.764;2023-02-13T10:09:09;99525.53;;;-2.61;91.03
44198;BME280;30157;55.512;37.764;2023-02-13T10:14:31;99541.41;;;-2.47;89.45
44198;BME280;30157;55.512;37.764;2023-02-13T10:17:13;99517.84;;;-2.63;88.88
44198;BME280;30157;55.512;37.764;2023-02-13T10:19:42;99519.88;;;-2.56;89.23
44198;BME280;30157;55.512;37.764;2023-02-13T10:27:38;99535.16;;;-2.34;88.71
44198;BME280;30157;55.512;37.764;2023-02-13T10:32:57;99524.81;;;-2.59;89.64
44198;BME280;30157;55.512;37.764;2023-02-13T10:35:46;99536.09;;;-2.52;90.01
44198;BME280;30157;55.512;37.764;2023-02-13T10:38:17;99490.59;;;-2.87;89.86
44198;BME280;30157;55.512;37.764;2023-02-13T10:41:05;99493.88;;;-2.89;90.51
44198;BME280;30157;55.512;37.764;2023-02-13T10:51:32;99398.22;;;-3.47;91.65
44198;BME280;30157;55.512;37.764;2023-02-13T10:57:05;99473.28;;;-2.95;92.48
44198;BME280;30157;55.512;37.764;2023-02-13T11:00:06;99488.53;;;-2.76;93.06
44198;BME280;30157;55.512;37.764;2023-02-13T11:02:34;99399.31;;;-3.23;93.06
44198;BME280;30157;55.512;37.764;2023-02-13T11:05:15;99485.03;;;-2.58;92.86
44198;BME280;30157;55.512;37.764;2023-02-13T11:07:43;99475.94;;;-2.53;92.31
44198;BME280;30157;55.512;37.764;2023-02-13T11:12:43;99470.75;;;-2.55;92.40
44198;BME280;30157;55.512;37.764;2023-02-13T11:15:30;99463.97;;;-2.56;92.56
44198;BME280;30157;55.512;37.764;2023-02-13T11:18:01;99343.06;;;-3.32;92.23
44198;BME280;30157;55.512;37.764;2023-02-13T11:20:39;99389.13;;;-3.03;93.01
44198;BME280;30157;55.512;37.764;2023-02-13T11:28:29;99389.31;;;-2.79;93.16
44198;BME280;30157;55.512;37.764;2023-02-13T11:33:51;99340.09;;;-3.02;92.91
44198;BME280;30157;55.512;37.764;2023-02-13T11:36:32;99387.09;;;-2.71;92.60
44198;BME280;30157;55.512;37.764;2023-02-13T11:39:11;99422.47;;;-2.55;92.76
44198;BME280;30157;55.512;37.764;2023-02-13T11:41:43;99443.13;;;-2.47;93.08
44198;BME280;30157;55.512;37.764;2023-02-13T11:44:30;99431.09;;;-2.51;93.50
44198;BME280;30157;55.512;37.764;2023-02-13T11:46:58;99432.84;;;-2.50;94.28
44198;BME280;30157;55.512;37.764;2023-02-13T11:49:29;99438.31;;;-2.41;94.09
44198;BME280;30157;55.512;37.764;2023-02-13T11:52:01;99391.31;;;-2.72;94.09
44198;BME280;30157;55.512;37.764;2023-02-13T11:54:33;99405.31;;;-2.60;94.65
44198;BME280;30157;55.512;37.764;2023-02-13T11:57:03;99313.47;;;-3.12;94.39
44198;BME280;30157;55.512;37.764;2023-02-13T11:59:43;99319.03;;;-2.99;93.66
44198;BME280;30157;55.512;37.764;2023-02-13T12:05:25;99402.28;;;-2.30;94.56
44198;BME280;30157;55.512;37.764;2023-02-13T12:07:51;99295.63;;;-2.92;94.95
44198;BME280;30157;55.512;37.764;2023-02-13T12:10:37;99402.84;;;-2.16;94.41
44198;BME280;30157;55.512;37.764;2023-02-13T12:13:40;99391.09;;;-2.13;94.26
44198;BME280;30157;55.512;37.764;2023-02-13T12:16:34;99394.63;;;-2.09;94.06
44198;BME280;30157;55.512;37.764;2023-02-13T12:19:05;99391.34;;;-2.07;93.94
44198;BME280;30157;55.512;37.764;2023-02-13T12:37:58;99371.41;;;-1.96;94.58
44198;BME280;30157;55.512;37.764;2023-02-13T12:40:51;99372.34;;;-1.94;94.25
44198;BME280;30157;55.512;37.764;2023-02-13T12:45:52;99373.09;;;-1.96;94.62
44198;BME280;30157;55.512;37.764;2023-02-13T12:51:32;99238.31;;;-2.64;94.59
44198;BME280;30157;55.512;37.764;2023-02-13T12:57:06;99356.03;;;-1.99;95.45
44198;BME280;30157;55.512;37.764;2023-02-13T13:02:43;99351.06;;;-1.96;95.09
44198;BME280;30157;55.512;37.764;2023-02-13T13:13:27;99321.28;;;-1.98;96.12
44198;BME280;30157;55.512;37.764;2023-02-13T13:16:33;99326.56;;;-1.94;95.91
44198;BME280;30157;55.512;37.764;2023-02-13T13:21:59;99313.00;;;-1.93;95.57
44198;BME280;30157;55.512;37.764;2023-02-13T13:27:25;99226.19;;;-2.49;95.87
44198;BME280;30157;55.512;37.764;2023-02-13T13:30:02;99321.69;;;-1.88;96.20
44198;BME280;30157;55.512;37.764;2023-02-13T13:32:30;99316.66;;;-1.86;95.89
44198;BME280;30157;55.512;37.764;2023-02-13T13:34:57;99269.16;;;-2.10;95.63
44198;BME280;30157;55.512;37.764;2023-02-13T13:37:39;99319.44;;;-1.80;95.41
44198;BME280;30157;55.512;37.764;2023-02-13T13:40:35;99322.88;;;-1.78;94.99
44198;BME280;30157;55.512;37.764;2023-02-13T13:45:45;99326.28;;;-1.79;94.91
44198;BME280;30157;55.512;37.764;2023-02-13T13:48:20;99321.13;;;-1.80;94.90
44198;BME280;30157;55.512;37.764;2023-02-13T13:50:48;99215.28;;;-2.46;94.85
44198;BME280;30157;55.512;37.764;2023-02-13T13:53:14;99317.75;;;-1.79;95.26
44198;BME280;30157;55.512;37.764;2023-02-13T13:58:25;99313.53;;;-1.79;95.28
44198;BME280;30157;55.512;37.764;2023-02-13T14:01:21;99308.47;;;-1.79;94.80
44198;BME280;30157;55.512;37.764;2023-02-13T14:04:01;99236.63;;;-2.18;94.92
44198;BME280;30157;55.512;37.764;2023-02-13T14:11:55;99292.50;;;-1.75;94.54
44198;BME280;30157;55.512;37.764;2023-02-13T14:16:58;99262.88;;;-1.95;94.62
44198;BME280;30157;55.512;37.764;2023-02-13T14:19:39;99294.03;;;-1.78;95.02
44198;BME280;30157;55.512;37.764;2023-02-13T14:25:04;99182.25;;;-2.46;95.81
44198;BME280;30157;55.512;37.764;2023-02-13T14:27:32;99186.50;;;-2.45;95.89
44198;BME280;30157;55.512;37.764;2023-02-13T14:29:59;99271.47;;;-1.93;97.43
44198;BME280;30157;55.512;37.764;2023-02-13T14:32:33;99249.72;;;-2.08;97.75
44198;BME280;30157;55.512;37.764;2023-02-13T14:35:25;99267.28;;;-1.91;97.82
44198;BME280;30157;55.512;37.764;2023-02-13T14:37:54;99261.19;;;-1.96;98.61
44198;BME280;30157;55.512;37.764;2023-02-13T14:40:51;99261.22;;;-1.95;99.01
44198;BME280;30157;55.512;37.764;2023-02-13T14:48:40;99258.59;;;-1.98;99.46
44198;BME280;30157;55.512;37.764;2023-02-13T14:51:16;99264.53;;;-1.97;99.61
44198;BME280;30157;55.512;37.764;2023-02-13T14:53:50;99249.31;;;-1.96;99.82
44198;BME280;30157;55.512;37.764;2023-02-13T14:56:19;99253.66;;;-1.93;99.92
44198;BME280;30157;55.512;37.764;2023-02-13T14:58:53;99226.19;;;-2.02;100.00
44198;BME280;30157;55.512;37.764;2023-02-13T15:01:28;99242.50;;;-1.97;100.00
44198;BME280;30157;55.512;37.764;2023-02-13T15:04:04;99203.84;;;-2.11;100.00
44198;BME280;30157;55.512;37.764;2023-02-13T15:06:38;99105.16;;;-2.70;100.00
44198;BME280;30157;55.512;37.764;2023-02-13T15:09:23;99121.31;;;-2.45;99.94
44198;BME280;30157;55.512;37.764;2023-02-13T15:11:50;99220.03;;;-1.84;100.00
44198;BME280;30157;55.512;37.764;2023-02-13T15:14:19;99220.69;;;-1.90;100.00
44198;BME280;30157;55.512;37.764;2023-02-13T15:16:49;99217.56;;;-1.83;99.89
44198;BME280;30157;55.512;37.764;2023-02-13T15:19:17;99208.94;;;-1.87;100.00
44198;BME280;30157;55.512;37.764;2023-02-13T15:21:51;99135.63;;;-2.23;100.00
44198;BME280;30157;55.512;37.764;2023-02-13T15:24:19;99145.09;;;-2.18;100.00
44198;BME280;30157;55.512;37.764;2023-02-13T15:26:59;99173.78;;;-1.98;100.00
44198;BME280;30157;55.512;37.764;2023-02-13T15:29:25;99136.44;;;-2.24;100.00